createdAt,value
2023-05-01T00:00:40.095Z,11.40
2023-05-01T00:03:18.296Z,9.80
2023-05-01T00:05:47.896Z,8.20
2023-05-01T00:08:16.581Z,8.90
2023-05-01T00:10:45.296Z,7.40
2023-05-01T00:13:14.255Z,8.40
2023-05-01T00:15:43.555Z,7.80
2023-05-01T00:18:12.341Z,7.40
2023-05-01T00:20:41.187Z,8.20
2023-05-01T00:23:10.085Z,10.60
2023-05-01T00:25:39.544Z,9.50
2023-05-01T00:28:08.503Z,10.30
2023-05-01T00:30:37.760Z,9.10
2023-05-01T00:33:06.560Z,8.40
2023-05-01T00:35:35.854Z,10.30
2023-05-01T00:38:04.599Z,8.10
2023-05-01T00:40:33.483Z,9.50
2023-05-01T00:43:03.778Z,9.60
2023-05-01T00:45:32.737Z,6.20
2023-05-01T00:48:02.264Z,6.60
2023-05-01T00:50:31.518Z,9.60
2023-05-01T00:53:01.034Z,10.70
2023-05-01T00:55:31.523Z,9.60
2023-05-01T00:58:02.367Z,10.60
2023-05-01T01:00:31.178Z,8.70
2023-05-01T01:02:59.945Z,11.70
2023-05-01T01:05:32.861Z,9.50
2023-05-01T01:08:24.308Z,13.80
2023-05-01T01:11:19.989Z,7.50
2023-05-01T01:14:00.548Z,11.50
2023-05-01T01:16:59.613Z,10.60
2023-05-01T01:20:18.989Z,8.20
2023-05-01T01:23:04.707Z,17.30
2023-05-01T01:26:22.922Z,14.00
2023-05-01T01:29:28.256Z,8.60
2023-05-01T01:32:32.127Z,13.10
2023-05-01T01:35:13.074Z,12.80
2023-05-01T01:37:52.356Z,12.90
2023-05-01T01:40:29.916Z,14.80
2023-05-01T01:46:28.892Z,13.40
2023-05-01T01:48:59.302Z,13.00
2023-05-01T01:51:29.923Z,12.60
2023-05-01T01:54:00.739Z,11.50
2023-05-01T01:56:31.776Z,15.90
2023-05-01T01:59:02.756Z,13.40
2023-05-01T02:01:35.151Z,12.20
2023-05-01T02:04:05.794Z,11.00
2023-05-01T02:06:36.814Z,15.40
2023-05-01T02:09:07.825Z,13.60
2023-05-01T02:11:38.452Z,13.00
2023-05-01T02:14:09.431Z,13.10
2023-05-01T02:16:38.266Z,13.00
2023-05-01T02:19:07.417Z,12.00
2023-05-01T02:21:37.945Z,10.20
2023-05-01T02:24:07.731Z,8.10
2023-05-01T02:26:48.138Z,10.80
2023-05-01T02:29:17.111Z,8.90
2023-05-01T02:31:45.817Z,9.50
2023-05-01T02:34:14.984Z,6.80
2023-05-01T02:36:43.894Z,6.00
2023-05-01T02:39:12.685Z,10.20
2023-05-01T02:41:42.324Z,5.80
2023-05-01T02:44:13.243Z,12.50
2023-05-01T02:46:45.923Z,7.10
2023-05-01T02:49:18.891Z,5.30
2023-05-01T02:51:48.794Z,6.60
2023-05-01T02:54:17.649Z,6.30
2023-05-01T02:56:46.440Z,5.60
2023-05-01T02:59:15.715Z,5.40
2023-05-01T03:01:44.383Z,5.70
2023-05-01T03:04:13.196Z,7.10
2023-05-01T03:06:41.844Z,5.80
2023-05-01T03:09:10.720Z,7.50
2023-05-01T03:11:39.443Z,6.80
2023-05-01T03:14:08.118Z,11.50
2023-05-01T03:16:36.909Z,5.70
2023-05-01T03:19:06.322Z,4.90
2023-05-01T03:21:34.983Z,5.40
2023-05-01T03:24:04.612Z,4.50
2023-05-01T03:26:33.301Z,5.30
2023-05-01T03:29:01.928Z,5.30
2023-05-01T03:31:31.032Z,6.50
2023-05-01T03:34:00.002Z,5.70
2023-05-01T03:36:28.779Z,5.60
2023-05-01T03:38:57.876Z,9.50
2023-05-01T03:42:10.081Z,8.30
2023-05-01T03:44:42.990Z,5.10
2023-05-01T03:47:11.732Z,8.10
2023-05-01T03:49:43.933Z,4.90
2023-05-01T03:52:13.086Z,7.30
2023-05-01T03:54:42.397Z,4.60
2023-05-01T03:57:36.063Z,6.10
2023-05-01T04:00:07.289Z,5.30
2023-05-01T04:02:45.864Z,7.70
2023-05-01T04:05:21.868Z,5.30
2023-05-01T04:07:55.793Z,4.30
2023-05-01T04:10:25.557Z,8.60
2023-05-01T04:13:13.144Z,5.50
2023-05-01T04:15:49.308Z,7.20
2023-05-01T04:18:18.417Z,9.40
2023-05-01T04:20:50.389Z,7.60
2023-05-01T04:25:53.656Z,7.60
2023-05-01T04:28:22.598Z,4.50
2023-05-01T04:30:52.315Z,7.70
2023-05-01T04:33:21.055Z,5.60
2023-05-01T04:35:49.525Z,5.60
2023-05-01T04:38:18.955Z,7.60
2023-05-01T04:40:47.819Z,8.40
2023-05-01T04:43:16.684Z,4.80
2023-05-01T04:45:45.879Z,6.70
2023-05-01T04:48:14.771Z,6.30
2023-05-01T04:54:12.617Z,7.20
2023-05-01T04:56:41.606Z,6.10
2023-05-01T04:59:10.257Z,8.90
2023-05-01T05:01:39.108Z,7.90
2023-05-01T05:04:08.174Z,7.00
2023-05-01T05:06:37.148Z,6.10
2023-05-01T05:09:08.368Z,4.60
2023-05-01T05:11:37.016Z,6.90
2023-05-01T05:14:11.207Z,4.90
2023-05-01T05:16:41.433Z,4.60
2023-05-01T05:19:10.129Z,8.80
2023-05-01T05:21:40.213Z,11.90
2023-05-01T05:24:09.875Z,7.50
2023-05-01T05:26:38.448Z,7.80
2023-05-01T05:29:07.615Z,5.60
2023-05-01T05:31:36.364Z,6.30
2023-05-01T05:34:05.325Z,5.70
2023-05-01T05:36:34.127Z,4.90
2023-05-01T05:39:03.772Z,9.50
2023-05-01T05:41:33.695Z,5.80
2023-05-01T05:44:03.304Z,6.80
2023-05-01T05:46:32.922Z,8.90
2023-05-01T05:49:01.683Z,5.50
2023-05-01T05:51:32.070Z,7.60
2023-05-01T05:54:01.500Z,6.10
2023-05-01T05:56:30.941Z,5.40
2023-05-01T05:59:03.674Z,5.30
2023-05-01T06:01:33.052Z,4.00
2023-05-01T06:04:01.596Z,5.40
2023-05-01T06:06:31.647Z,4.30
2023-05-01T06:09:01.249Z,5.10
2023-05-01T06:11:30.606Z,6.10
2023-05-01T06:13:59.176Z,7.80
2023-05-01T06:16:27.893Z,8.70
2023-05-01T06:18:56.669Z,4.90
2023-05-01T06:21:25.368Z,5.60
2023-05-01T06:23:54.082Z,3.50
2023-05-01T06:26:29.874Z,8.50
2023-05-01T06:28:58.552Z,7.00
2023-05-01T06:31:27.870Z,11.80
2023-05-01T06:33:57.300Z,3.70
2023-05-01T06:37:07.872Z,4.40
2023-05-01T06:39:36.714Z,6.10
2023-05-01T06:42:05.399Z,6.00
2023-05-01T06:44:40.077Z,4.40
2023-05-01T06:47:09.084Z,4.10
2023-05-01T06:49:37.763Z,7.20
2023-05-01T06:52:06.484Z,3.70
2023-05-01T06:54:35.072Z,4.40
2023-05-01T06:57:03.653Z,2.60
2023-05-01T06:59:32.278Z,5.50
2023-05-01T07:02:01.090Z,4.80
2023-05-01T07:04:29.742Z,3.70
2023-05-01T07:06:58.259Z,4.50
2023-05-01T07:09:26.811Z,5.20
2023-05-01T07:11:57.304Z,3.80
2023-05-01T07:14:25.855Z,4.70
2023-05-01T07:16:54.502Z,2.60
2023-05-01T07:19:23.310Z,4.90
2023-05-01T07:21:51.963Z,4.80
2023-05-01T07:24:21.671Z,3.70
2023-05-01T07:26:50.348Z,2.10
2023-05-01T07:29:19.126Z,10.60
2023-05-01T07:31:48.469Z,3.50
2023-05-01T07:34:18.418Z,2.50
2023-05-01T07:36:48.310Z,5.10
2023-05-01T07:39:17.949Z,2.90
2023-05-01T07:41:46.732Z,2.20
2023-05-01T07:44:15.347Z,6.60
2023-05-01T07:46:43.991Z,3.20
2023-05-01T07:49:12.494Z,4.60
2023-05-01T07:51:41.661Z,3.50
2023-05-01T07:54:10.478Z,3.50
2023-05-01T07:56:39.968Z,3.60
2023-05-01T07:59:08.614Z,4.00
2023-05-01T08:01:37.198Z,6.10
2023-05-01T08:04:06.211Z,1.90
2023-05-01T08:06:35.020Z,2.90
2023-05-01T08:09:03.843Z,2.30
2023-05-01T08:11:33.764Z,2.20
2023-05-01T08:14:03.924Z,3.90
2023-05-01T08:16:34.507Z,3.90
2023-05-01T08:19:03.082Z,4.50
2023-05-01T08:21:31.726Z,1.90
2023-05-01T08:24:00.503Z,3.50
2023-05-01T08:26:29.149Z,2.40
2023-05-01T08:28:57.796Z,3.30
2023-05-01T08:31:26.574Z,2.90
2023-05-01T08:33:55.189Z,4.10
2023-05-01T08:36:23.763Z,6.90
2023-05-01T08:38:52.466Z,4.00
2023-05-01T08:41:24.553Z,2.60
2023-05-01T08:43:53.731Z,5.60
2023-05-01T08:47:15.638Z,4.10
2023-05-01T08:49:47.434Z,5.40
2023-05-01T08:52:16.187Z,3.90
2023-05-01T08:54:47.401Z,5.20
2023-05-01T08:57:17.492Z,1.90
2023-05-01T08:59:48.442Z,4.20
2023-05-01T09:02:18.405Z,2.20
2023-05-01T09:04:50.023Z,2.80
2023-05-01T09:07:19.444Z,2.50
2023-05-01T09:09:48.071Z,5.50
2023-05-01T09:12:26.996Z,2.00
2023-05-01T09:14:57.178Z,4.30
2023-05-01T09:17:26.415Z,1.60
2023-05-01T09:19:55.251Z,3.00
2023-05-01T09:22:24.946Z,2.60
2023-05-01T09:24:53.580Z,2.40
2023-05-01T09:27:22.951Z,1.80
2023-05-01T09:29:51.763Z,2.00
2023-05-01T09:32:26.288Z,1.20
2023-05-01T09:35:14.361Z,3.10
2023-05-01T09:37:43.219Z,1.90
2023-05-01T09:40:16.160Z,3.20
2023-05-01T09:42:53.590Z,1.30
2023-05-01T09:45:23.798Z,2.00
2023-05-01T09:47:52.468Z,5.20
2023-05-01T09:50:34.526Z,6.30
2023-05-01T09:53:06.701Z,1.50
2023-05-01T09:55:35.845Z,3.70
2023-05-01T09:58:04.507Z,4.00
2023-05-01T10:00:47.551Z,3.10
2023-05-01T10:03:16.430Z,3.50
2023-05-01T10:05:45.704Z,2.10
2023-05-01T10:08:15.365Z,1.60
2023-05-01T10:10:44.195Z,1.90
2023-05-01T10:13:17.364Z,6.30
2023-05-01T10:15:54.784Z,2.50
2023-05-01T10:18:24.269Z,3.50
2023-05-01T10:20:52.944Z,2.60
2023-05-01T10:23:21.732Z,3.60
2023-05-01T10:25:53.240Z,3.10
2023-05-01T10:28:21.988Z,2.50
2023-05-01T10:30:51.698Z,1.60
2023-05-01T10:33:20.737Z,3.00
2023-05-01T10:35:56.485Z,2.90
2023-05-01T10:38:34.567Z,6.00
2023-05-01T10:41:04.057Z,3.50
2023-05-01T10:43:32.994Z,2.20
2023-05-01T10:46:10.681Z,1.70
2023-05-01T10:48:42.722Z,3.10
2023-05-01T10:51:20.844Z,2.10
2023-05-01T10:54:13.153Z,4.50
2023-05-01T10:56:43.702Z,2.50
2023-05-01T10:59:13.321Z,1.90
2023-05-01T11:01:52.076Z,1.80
2023-05-01T11:04:24.803Z,6.20
2023-05-01T11:07:05.634Z,2.80
2023-05-01T11:09:55.609Z,3.90
2023-05-01T11:12:46.713Z,3.10
2023-05-01T11:15:27.208Z,3.30
2023-05-01T11:17:56.409Z,6.30
2023-05-01T11:20:25.140Z,3.90
2023-05-01T11:22:56.603Z,6.60
2023-05-01T11:25:31.250Z,4.50
2023-05-01T11:28:03.349Z,5.70
2023-05-01T11:30:39.990Z,3.50
2023-05-01T11:33:10.568Z,3.00
2023-05-01T11:35:39.963Z,6.80
2023-05-01T11:38:21.491Z,5.40
2023-05-01T11:40:57.550Z,4.10
2023-05-01T11:43:27.025Z,2.20
2023-05-01T11:46:02.051Z,3.10
2023-05-01T11:48:32.233Z,2.40
2023-05-01T11:51:00.928Z,2.40
2023-05-01T11:53:30.346Z,2.10
2023-05-01T11:56:00.247Z,4.80
2023-05-01T11:58:34.508Z,2.70
2023-05-01T12:01:03.648Z,1.40
2023-05-01T12:03:45.613Z,2.30
2023-05-01T12:06:15.436Z,3.50
2023-05-01T12:08:51.308Z,1.40
2023-05-01T12:11:21.420Z,4.00
2023-05-01T12:13:50.437Z,2.00
2023-05-01T12:16:19.368Z,3.70
2023-05-01T12:18:48.562Z,5.30
2023-05-01T12:21:18.166Z,6.30
2023-05-01T12:23:46.662Z,1.80
2023-05-01T12:26:25.384Z,2.20
2023-05-01T12:29:04.678Z,1.80
2023-05-01T12:31:33.980Z,2.80
2023-05-01T12:34:07.795Z,6.90
2023-05-01T12:36:37.837Z,1.70
2023-05-01T12:39:13.372Z,7.50
2023-05-01T12:41:52.561Z,6.60
2023-05-01T12:44:24.765Z,4.40
2023-05-01T12:47:08.269Z,3.80
2023-05-01T12:49:38.179Z,3.20
2023-05-01T12:52:09.407Z,5.70
2023-05-01T12:54:41.024Z,2.30
2023-05-01T12:57:15.718Z,3.00
2023-05-01T12:59:47.186Z,1.70
2023-05-01T13:02:18.407Z,5.60
2023-05-01T13:04:49.613Z,2.20
2023-05-01T13:07:19.575Z,3.40
2023-05-01T13:09:53.680Z,2.70
2023-05-01T13:12:22.947Z,1.50
2023-05-01T13:14:52.462Z,4.10
2023-05-01T13:17:30.438Z,1.60
2023-05-01T13:20:04.479Z,5.60
2023-05-01T13:22:38.520Z,4.40
2023-05-01T13:25:20.890Z,4.60
2023-05-01T13:27:53.732Z,2.10
2023-05-01T13:30:33.680Z,1.80
2023-05-01T13:33:05.581Z,6.30
2023-05-01T13:35:34.205Z,3.40
2023-05-01T13:38:04.290Z,2.70
2023-05-01T13:40:34.590Z,2.10
2023-05-01T13:43:03.375Z,6.40
2023-05-01T13:45:32.302Z,2.90
2023-05-01T13:48:03.134Z,6.40
2023-05-01T13:50:32.113Z,4.70
2023-05-01T13:53:01.540Z,3.60
2023-05-01T13:55:30.291Z,5.00
2023-05-01T13:58:01.492Z,1.50
2023-05-01T14:00:30.177Z,3.50
2023-05-01T14:03:00.015Z,4.80
2023-05-01T14:05:29.191Z,7.40
2023-05-01T14:07:59.165Z,2.70
2023-05-01T14:10:29.760Z,2.10
2023-05-01T14:12:59.728Z,4.10
2023-05-01T14:15:29.740Z,3.10
2023-05-01T14:18:01.046Z,2.70
2023-05-01T14:20:30.091Z,8.50
2023-05-01T14:23:00.135Z,5.10
2023-05-01T14:25:34.211Z,3.40
2023-05-01T14:28:12.003Z,3.40
2023-05-01T14:30:42.125Z,2.70
2023-05-01T14:33:13.910Z,2.80
2023-05-01T14:35:53.978Z,2.60
2023-05-01T14:38:24.674Z,5.00
2023-05-01T14:40:53.463Z,3.10
2023-05-01T14:43:22.481Z,5.40
2023-05-01T14:45:51.347Z,6.90
2023-05-01T14:48:30.597Z,2.30
2023-05-01T14:50:59.730Z,3.50
2023-05-01T14:53:32.957Z,3.00
2023-05-01T14:56:01.627Z,5.50
2023-05-01T14:58:30.211Z,5.00
2023-05-01T15:00:58.927Z,2.60
2023-05-01T15:03:27.715Z,2.50
2023-05-01T15:05:57.546Z,2.20
2023-05-01T15:08:26.416Z,4.60
2023-05-01T15:10:55.053Z,2.90
2023-05-01T15:13:23.836Z,2.40
2023-05-01T15:15:53.041Z,4.40
2023-05-01T15:18:23.624Z,4.90
2023-05-01T15:20:52.228Z,5.40
2023-05-01T15:23:20.824Z,3.90
2023-05-01T15:25:50.980Z,3.00
2023-05-01T15:28:19.963Z,3.00
2023-05-01T15:30:48.616Z,2.50
2023-05-01T15:33:19.266Z,2.90
2023-05-01T15:35:51.228Z,3.20
2023-05-01T15:38:22.904Z,3.80
2023-05-01T15:40:52.244Z,6.40
2023-05-01T15:43:22.461Z,1.70
2023-05-01T15:45:52.295Z,4.70
2023-05-01T15:48:20.983Z,3.50
2023-05-01T15:50:49.704Z,3.00
2023-05-01T15:53:18.381Z,3.30
2023-05-01T15:55:47.003Z,4.20
2023-05-01T15:58:17.031Z,1.90
2023-05-01T16:00:48.125Z,3.80
2023-05-01T16:03:17.726Z,3.30
2023-05-01T16:05:49.080Z,5.20
2023-05-01T16:08:19.283Z,3.30
2023-05-01T16:10:48.194Z,2.30
2023-05-01T16:13:16.971Z,5.10
2023-05-01T16:15:45.627Z,1.60
2023-05-01T16:18:22.251Z,2.40
2023-05-01T16:20:55.146Z,3.90
2023-05-01T16:23:26.939Z,2.80
2023-05-01T16:25:55.668Z,5.90
2023-05-01T16:28:26.387Z,3.90
2023-05-01T16:30:55.161Z,1.80
2023-05-01T16:33:23.959Z,3.70
2023-05-01T16:35:52.825Z,2.20
2023-05-01T16:38:21.661Z,2.70
2023-05-01T16:40:50.761Z,3.60
2023-05-01T16:43:22.562Z,4.00
2023-05-01T16:45:54.400Z,2.20
2023-05-01T16:50:53.315Z,1.70
2023-05-01T16:53:22.495Z,2.80
2023-05-01T16:55:51.306Z,7.10
2023-05-01T16:58:20.921Z,3.00
2023-05-01T17:00:49.919Z,2.70
2023-05-01T17:03:18.762Z,4.00
2023-05-01T17:05:47.519Z,2.70
2023-05-01T17:08:16.350Z,4.00
2023-05-01T17:10:45.891Z,4.70
2023-05-01T17:13:15.907Z,4.30
2023-05-01T17:15:44.556Z,7.70
2023-05-01T17:18:13.417Z,2.20
2023-05-01T17:20:42.090Z,6.10
2023-05-01T17:23:10.724Z,6.80
2023-05-01T17:25:39.435Z,3.60
2023-05-01T17:28:08.679Z,7.20
2023-05-01T17:30:37.420Z,3.80
2023-05-01T17:33:06.442Z,7.30
2023-05-01T17:35:35.487Z,5.40
2023-05-01T17:38:04.201Z,10.00
2023-05-01T17:40:32.819Z,7.50
2023-05-01T17:43:01.586Z,14.90
2023-05-01T17:45:30.318Z,8.70
2023-05-01T17:47:59.155Z,14.00
2023-05-01T17:50:28.206Z,42.20
2023-05-01T17:52:57.198Z,34.90
2023-05-01T17:55:27.250Z,38.60
2023-05-01T17:57:55.865Z,33.60
2023-05-01T18:00:25.762Z,36.20
2023-05-01T18:02:54.480Z,35.30
2023-05-01T18:05:23.289Z,26.30
2023-05-01T18:07:52.072Z,30.40
2023-05-01T18:10:20.884Z,30.90
2023-05-01T18:12:50.103Z,26.30
2023-05-01T18:15:22.843Z,28.60
2023-05-01T18:17:52.249Z,32.10
2023-05-01T18:20:21.470Z,37.80
2023-05-01T18:22:50.906Z,34.10
2023-05-01T18:25:20.458Z,44.10
2023-05-01T18:27:49.432Z,56.40
2023-05-01T18:30:18.029Z,64.10
2023-05-01T18:32:48.758Z,64.00
2023-05-01T18:35:19.193Z,26.80
2023-05-01T18:37:48.674Z,19.60
2023-05-01T18:40:18.928Z,16.60
2023-05-01T18:42:47.520Z,13.90
2023-05-01T18:45:16.304Z,22.10
2023-05-01T18:47:45.065Z,31.90
2023-05-01T18:50:14.015Z,21.10
2023-05-01T18:52:42.801Z,18.10
2023-05-01T18:55:11.814Z,26.60
2023-05-01T18:57:44.557Z,20.80
2023-05-01T19:00:17.779Z,18.30
2023-05-01T19:02:51.829Z,19.30
2023-05-01T19:05:22.598Z,20.40
2023-05-01T19:07:55.382Z,20.60
2023-05-01T19:10:24.289Z,22.90
2023-05-01T19:12:53.217Z,21.60
2023-05-01T19:15:21.869Z,34.10
2023-05-01T19:17:51.320Z,28.50
2023-05-01T19:20:20.595Z,26.10
2023-05-01T19:22:49.538Z,19.30
2023-05-01T19:25:19.143Z,24.00
2023-05-01T19:27:47.957Z,28.90
2023-05-01T19:30:17.151Z,28.00
2023-05-01T19:32:46.971Z,21.30
2023-05-01T19:35:16.439Z,21.50
2023-05-01T19:37:45.134Z,23.20
2023-05-01T19:40:13.804Z,20.30
2023-05-01T19:42:42.548Z,20.90
2023-05-01T19:45:11.316Z,25.10
2023-05-01T19:47:40.019Z,26.60
2023-05-01T19:50:09.705Z,25.80
2023-05-01T19:52:38.348Z,23.30
2023-05-01T19:55:08.332Z,27.00
2023-05-01T19:57:37.367Z,23.70
2023-05-01T20:00:07.604Z,24.20
2023-05-01T20:05:09.084Z,25.90
2023-05-01T20:07:37.855Z,20.70
2023-05-01T20:10:07.643Z,22.30
2023-05-01T20:12:36.385Z,24.00
2023-05-01T20:15:06.009Z,19.30
2023-05-01T20:17:35.524Z,22.50
2023-05-01T20:20:04.680Z,19.20
2023-05-01T20:22:34.082Z,27.90
2023-05-01T20:25:02.756Z,24.90
2023-05-01T20:27:31.477Z,22.20
2023-05-01T20:30:00.441Z,23.20
2023-05-01T20:32:29.477Z,21.30
2023-05-01T20:34:58.132Z,20.00
2023-05-01T20:37:26.929Z,20.50
2023-05-01T20:39:55.583Z,24.00
2023-05-01T20:42:24.717Z,19.50
2023-05-01T20:44:53.479Z,17.20
2023-05-01T20:47:22.166Z,21.40
2023-05-01T20:49:50.907Z,18.90
2023-05-01T20:53:37.833Z,20.80
2023-05-01T20:56:06.473Z,20.60
2023-05-01T20:58:36.510Z,23.10
2023-05-01T21:01:05.367Z,18.30
2023-05-01T21:03:34.098Z,18.50
2023-05-01T21:06:03.009Z,15.80
2023-05-01T21:08:31.730Z,20.50
2023-05-01T21:11:02.487Z,23.50
2023-05-01T21:13:32.297Z,22.00
2023-05-01T21:16:01.282Z,18.90
2023-05-01T21:18:33.670Z,19.30
2023-05-01T21:23:31.268Z,22.10
2023-05-01T21:25:59.841Z,19.20
2023-05-01T21:28:28.647Z,16.70
2023-05-01T21:30:57.214Z,21.20
2023-05-01T21:33:26.155Z,23.10
2023-05-01T21:35:54.831Z,22.70
2023-05-01T21:38:23.402Z,24.30
2023-05-01T21:40:52.211Z,28.00
2023-05-01T21:43:21.618Z,26.50
2023-05-01T21:45:50.330Z,25.20
2023-05-01T21:48:20.074Z,21.00
2023-05-01T21:50:50.267Z,25.00
2023-05-01T21:53:18.801Z,21.10
2023-05-01T21:55:47.505Z,22.00
2023-05-01T21:58:16.137Z,18.00
2023-05-01T22:00:46.460Z,15.20
2023-05-01T22:03:18.228Z,18.60
2023-05-01T22:05:46.947Z,21.90
2023-05-01T22:08:15.802Z,18.30
2023-05-01T22:10:45.596Z,17.90
2023-05-01T22:13:14.197Z,16.90
2023-05-01T22:15:42.769Z,21.90
2023-05-01T22:18:11.555Z,19.10
2023-05-01T22:20:40.201Z,15.70
2023-05-01T22:23:09.365Z,20.80
2023-05-01T22:25:38.025Z,18.00
2023-05-01T22:28:08.466Z,21.30
2023-05-01T22:30:37.702Z,14.60
2023-05-01T22:33:06.423Z,19.40
2023-05-01T22:35:35.017Z,16.90
2023-05-01T22:38:03.723Z,19.10
2023-05-01T22:40:32.501Z,18.00
2023-05-01T22:43:01.064Z,24.30
2023-05-01T22:45:29.634Z,20.60
2023-05-01T22:47:58.434Z,22.30
2023-05-01T22:50:27.465Z,20.90
2023-05-01T22:52:56.076Z,22.50
2023-05-01T22:55:24.822Z,22.30
2023-05-01T22:57:53.382Z,21.40
2023-05-01T23:00:22.560Z,21.40
2023-05-01T23:02:51.375Z,19.50
2023-05-01T23:05:20.210Z,20.00
2023-05-01T23:07:48.968Z,20.80
2023-05-01T23:10:17.593Z,20.90
2023-05-01T23:12:46.148Z,18.70
2023-05-01T23:15:22.137Z,19.60
2023-05-01T23:17:51.586Z,17.30
2023-05-01T23:20:24.820Z,16.20
2023-05-01T23:22:53.767Z,14.20
2023-05-01T23:25:26.245Z,15.60
2023-05-01T23:30:25.131Z,16.10
2023-05-01T23:32:59.004Z,17.40
2023-05-01T23:35:27.769Z,15.10
2023-05-01T23:37:56.275Z,16.40
2023-05-01T23:40:24.876Z,15.60
2023-05-01T23:42:55.273Z,18.10
2023-05-01T23:45:23.964Z,14.40
2023-05-01T23:47:52.772Z,14.70
2023-05-01T23:50:21.701Z,15.10
2023-05-01T23:52:50.453Z,13.50
2023-05-01T23:55:19.060Z,13.30
2023-05-01T23:57:48.437Z,15.80
